Seneca, Illinois
Current Conditions -  °F | °C
As of 6:35 AM on Monday 22 Dec 2014 (Local Time) from KC09 Reporting Station
Overcast Overcast  
Wind Chill: 25°   Ceiling: 4200
Heat Index: 33°   Visibility: 7mi
Dew Point: 31°   Wind: 10mph
Humidity: 92%   Direction: 130°SE
Pressure: 29.91"   Gusts: NA
Location:  41.31°N, 88.61°W
Report Text: KC09 221235Z AUTO 13009KT 7SM BKN042 OVC065 01/M01 A2991 RMK AO2 T00061006
Loading
Personal Weather Stations






























Interactive Weather Map New forecast layout! Learn more

10-Day Weather Forecast

Advertisements
Track Severe Weather on mobile